sensor_id;sensor_type;location;lat;lon;timestamp;pressure;altitude;pressure_sealevel;temperature;humidity
45247;BME280;31529;51.158;7.354;2022-08-21T00:00:08;98108.03;;;17.51;77.69
45247;BME280;31529;51.158;7.354;2022-08-21T00:00:43;98108.34;;;17.50;77.60
45247;BME280;31529;51.158;7.354;2022-08-21T00:01:16;98116.44;;;17.50;77.58
45247;BME280;31529;51.158;7.354;2022-08-21T00:01:49;98110.28;;;17.49;77.89
45247;BME280;31529;51.158;7.354;2022-08-21T00:02:23;98108.69;;;17.48;77.47
45247;BME280;31529;51.158;7.354;2022-08-21T00:02:59;98113.28;;;17.48;77.62
45247;BME280;31529;51.158;7.354;2022-08-21T00:03:32;98108.22;;;17.46;77.42
45247;BME280;31529;51.158;7.354;2022-08-21T00:04:04;98113.59;;;17.46;77.90
45247;BME280;31529;51.158;7.354;2022-08-21T00:04:37;97964.28;;;16.44;77.50
45247;BME280;31529;51.158;7.354;2022-08-21T00:05:08;98115.84;;;17.44;77.74
45247;BME280;31529;51.158;7.354;2022-08-21T00:05:45;98108.84;;;17.43;77.48
45247;BME280;31529;51.158;7.354;2022-08-21T00:06:18;98107.59;;;17.41;77.32
45247;BME280;31529;51.158;7.354;2022-08-21T00:06:50;98114.91;;;17.40;77.96
45247;BME280;31529;51.158;7.354;2022-08-21T00:07:22;98113.78;;;17.41;77.98
45247;BME280;31529;51.158;7.354;2022-08-21T00:07:54;98111.44;;;17.40;77.82
45247;BME280;31529;51.158;7.354;2022-08-21T00:08:25;98113.78;;;17.41;77.78
45247;BME280;31529;51.158;7.354;2022-08-21T00:08:57;98113.31;;;17.39;78.08
45247;BME280;31529;51.158;7.354;2022-08-21T00:09:28;98108.72;;;17.40;77.53
45247;BME280;31529;51.158;7.354;2022-08-21T00:09:59;98107.13;;;17.39;78.02
45247;BME280;31529;51.158;7.354;2022-08-21T00:10:30;98112.53;;;17.39;78.07
45247;BME280;31529;51.158;7.354;2022-08-21T00:11:02;98113.63;;;17.37;78.02
45247;BME280;31529;51.158;7.354;2022-08-21T00:11:35;98110.94;;;17.37;78.25
45247;BME280;31529;51.158;7.354;2022-08-21T00:12:07;98113.63;;;17.37;78.13
45247;BME280;31529;51.158;7.354;2022-08-21T00:12:38;98112.53;;;17.39;78.51
45247;BME280;31529;51.158;7.354;2022-08-21T00:13:10;98113.63;;;17.37;78.59
45247;BME280;31529;51.158;7.354;2022-08-21T00:13:42;98114.44;;;17.38;78.32
45247;BME280;31529;51.158;7.354;2022-08-21T00:14:13;98119.84;;;17.38;78.54
45247;BME280;31529;51.158;7.354;2022-08-21T00:14:44;98114.91;;;17.40;78.39
45247;BME280;31529;51.158;7.354;2022-08-21T00:15:17;98115.38;;;17.42;78.00
45247;BME280;31529;51.158;7.354;2022-08-21T00:15:51;98113.47;;;17.43;78.41
45247;BME280;31529;51.158;7.354;2022-08-21T00:16:22;98111.91;;;17.42;77.83
45247;BME280;31529;51.158;7.354;2022-08-21T00:16:53;98111.56;;;17.43;77.80
45247;BME280;31529;51.158;7.354;2022-08-21T00:17:24;98108.06;;;17.43;78.45
45247;BME280;31529;51.158;7.354;2022-08-21T00:17:55;98104.59;;;17.42;78.30
45247;BME280;31529;51.158;7.354;2022-08-21T00:18:27;98103.81;;;17.42;77.93
45247;BME280;31529;51.158;7.354;2022-08-21T00:18:58;98103.00;;;17.41;78.04
45247;BME280;31529;51.158;7.354;2022-08-21T00:19:30;98106.81;;;17.40;78.07
45247;BME280;31529;51.158;7.354;2022-08-21T00:20:03;98107.91;;;17.39;78.04
45247;BME280;31529;51.158;7.354;2022-08-21T00:20:37;98025.81;;;16.81;78.00
45247;BME280;31529;51.158;7.354;2022-08-21T00:21:11;98100.50;;;17.36;78.39
45247;BME280;31529;51.158;7.354;2022-08-21T00:21:43;98108.13;;;17.34;77.88
45247;BME280;31529;51.158;7.354;2022-08-21T00:22:14;98102.25;;;17.32;78.21
45247;BME280;31529;51.158;7.354;2022-08-21T00:22:45;98107.63;;;17.32;78.52
45247;BME280;31529;51.158;7.354;2022-08-21T00:23:17;98096.38;;;17.30;78.87
45247;BME280;31529;51.158;7.354;2022-08-21T00:23:48;98099.06;;;17.30;78.61
45247;BME280;31529;51.158;7.354;2022-08-21T00:24:20;98099.41;;;17.28;78.86
45247;BME280;31529;51.158;7.354;2022-08-21T00:24:52;98102.44;;;17.27;79.20
45247;BME280;31529;51.158;7.354;2022-08-21T00:25:23;98106.22;;;17.26;78.54
45247;BME280;31529;51.158;7.354;2022-08-21T00:25:55;98100.38;;;17.24;78.68
45247;BME280;31529;51.158;7.354;2022-08-21T00:26:26;98100.69;;;17.22;79.20
45247;BME280;31529;51.158;7.354;2022-08-21T00:26:57;98092.94;;;17.21;78.89
45247;BME280;31529;51.158;7.354;2022-08-21T00:27:28;98099.44;;;17.20;78.88
45247;BME280;31529;51.158;7.354;2022-08-21T00:27:59;98096.75;;;17.20;79.28
45247;BME280;31529;51.158;7.354;2022-08-21T00:28:30;98093.59;;;17.17;79.50
45247;BME280;31529;51.158;7.354;2022-08-21T00:29:02;98092.81;;;17.17;79.52
45247;BME280;31529;51.158;7.354;2022-08-21T00:29:33;98095.81;;;17.15;79.84
45247;BME280;31529;51.158;7.354;2022-08-21T00:30:05;98092.66;;;17.13;79.53
45247;BME280;31529;51.158;7.354;2022-08-21T00:30:37;98099.63;;;17.14;79.28
45247;BME280;31529;51.158;7.354;2022-08-21T00:31:09;98095.34;;;17.13;79.81
45247;BME280;31529;51.158;7.354;2022-08-21T00:31:41;98095.34;;;17.13;79.33
45247;BME280;31529;51.158;7.354;2022-08-21T00:32:13;98091.84;;;17.13;79.46
45247;BME280;31529;51.158;7.354;2022-08-21T00:32:51;98095.16;;;17.18;79.28
45247;BME280;31529;51.158;7.354;2022-08-21T00:33:24;98097.53;;;17.20;78.98
45247;BME280;31529;51.158;7.354;2022-08-21T00:33:56;98099.13;;;17.21;78.79
45247;BME280;31529;51.158;7.354;2022-08-21T00:34:27;98099.13;;;17.21;79.09
45247;BME280;31529;51.158;7.354;2022-08-21T00:34:58;98095.28;;;17.22;78.92
45247;BME280;31529;51.158;7.354;2022-08-21T00:35:34;98094.50;;;17.22;79.22
45247;BME280;31529;51.158;7.354;2022-08-21T00:36:07;98090.25;;;17.21;78.59
45247;BME280;31529;51.158;7.354;2022-08-21T00:36:38;98097.53;;;17.20;78.36
45247;BME280;31529;51.158;7.354;2022-08-21T00:37:09;98093.28;;;17.19;78.11
45247;BME280;31529;51.158;7.354;2022-08-21T00:37:41;98093.59;;;17.17;78.34
45247;BME280;31529;51.158;7.354;2022-08-21T00:38:12;98090.88;;;17.17;78.88
45247;BME280;31529;51.158;7.354;2022-08-21T00:38:43;98092.00;;;17.16;78.60
45247;BME280;31529;51.158;7.354;2022-08-21T00:39:14;98093.91;;;17.16;78.51
45247;BME280;31529;51.158;7.354;2022-08-21T00:39:46;98093.13;;;17.15;78.54
45247;BME280;31529;51.158;7.354;2022-08-21T00:40:19;98101.22;;;17.15;78.63
45247;BME280;31529;51.158;7.354;2022-08-21T00:40:57;98091.53;;;17.14;78.55
45247;BME280;31529;51.158;7.354;2022-08-21T00:41:30;98094.22;;;17.14;79.24
45247;BME280;31529;51.158;7.354;2022-08-21T00:42:02;98092.34;;;17.15;79.33
45247;BME280;31529;51.158;7.354;2022-08-21T00:42:33;98094.22;;;17.14;79.31
45247;BME280;31529;51.158;7.354;2022-08-21T00:43:04;98086.34;;;17.09;78.93
45247;BME280;31529;51.158;7.354;2022-08-21T00:43:38;98092.34;;;17.06;79.57
45247;BME280;31529;51.158;7.354;2022-08-21T00:44:11;98089.97;;;17.05;79.63
45247;BME280;31529;51.158;7.354;2022-08-21T00:44:46;98094.59;;;17.04;79.47
45247;BME280;31529;51.158;7.354;2022-08-21T00:45:18;98003.59;;;16.45;79.52
45247;BME280;31529;51.158;7.354;2022-08-21T00:45:51;98091.75;;;17.01;79.36
45247;BME280;31529;51.158;7.354;2022-08-21T00:46:24;98078.56;;;16.99;79.76
45247;BME280;31529;51.158;7.354;2022-08-21T00:46:55;98082.72;;;16.96;79.49
45247;BME280;31529;51.158;7.354;2022-08-21T00:47:26;98087.97;;;16.93;79.92
45247;BME280;31529;51.158;7.354;2022-08-21T00:47:57;97999.00;;;16.37;80.15
45247;BME280;31529;51.158;7.354;2022-08-21T00:48:28;98087.19;;;16.92;79.88
45247;BME280;31529;51.158;7.354;2022-08-21T00:48:59;98086.34;;;16.92;79.57
45247;BME280;31529;51.158;7.354;2022-08-21T00:49:30;98085.91;;;16.90;79.96
45247;BME280;31529;51.158;7.354;2022-08-21T00:50:03;98082.72;;;16.88;79.79
45247;BME280;31529;51.158;7.354;2022-08-21T00:50:38;98081.94;;;16.87;79.34
45247;BME280;31529;51.158;7.354;2022-08-21T00:51:14;98086.88;;;16.85;79.41
45247;BME280;31529;51.158;7.354;2022-08-21T00:51:55;98083.03;;;16.86;79.88
45247;BME280;31529;51.158;7.354;2022-08-21T00:52:30;98083.84;;;16.87;79.65
45247;BME280;31529;51.158;7.354;2022-08-21T00:53:04;98083.84;;;16.87;79.53
45247;BME280;31529;51.158;7.354;2022-08-21T00:53:37;98076.88;;;16.86;79.96
45247;BME280;31529;51.158;7.354;2022-08-21T00:54:10;98076.88;;;16.86;79.90
45247;BME280;31529;51.158;7.354;2022-08-21T00:54:43;98080.34;;;16.86;79.92
45247;BME280;31529;51.158;7.354;2022-08-21T00:55:16;98078.47;;;16.87;80.04
45247;BME280;31529;51.158;7.354;2022-08-21T00:55:48;98078.47;;;16.87;80.11
45247;BME280;31529;51.158;7.354;2022-08-21T00:56:20;98088.44;;;16.86;80.09
45247;BME280;31529;51.158;7.354;2022-08-21T00:56:54;98080.34;;;16.86;79.84
45247;BME280;31529;51.158;7.354;2022-08-21T00:57:30;98077.66;;;16.86;79.81
45247;BME280;31529;51.158;7.354;2022-08-21T00:58:06;98082.25;;;16.86;79.68
45247;BME280;31529;51.158;7.354;2022-08-21T00:58:40;98082.25;;;16.86;79.68
45247;BME280;31529;51.158;7.354;2022-08-21T00:59:13;98077.19;;;16.84;79.57
45247;BME280;31529;51.158;7.354;2022-08-21T00:59:45;98076.09;;;16.85;80.08
45247;BME280;31529;51.158;7.354;2022-08-21T01:00:22;98087.66;;;16.86;79.92
45247;BME280;31529;51.158;7.354;2022-08-21T01:00:59;98083.03;;;16.86;79.41
45247;BME280;31529;51.158;7.354;2022-08-21T01:01:31;98084.97;;;16.86;79.80
45247;BME280;31529;51.158;7.354;2022-08-21T01:02:03;98079.56;;;16.86;80.22
45247;BME280;31529;51.158;7.354;2022-08-21T01:02:37;98003.13;;;16.34;79.66
45247;BME280;31529;51.158;7.354;2022-08-21T01:03:10;98077.50;;;16.83;79.43
45247;BME280;31529;51.158;7.354;2022-08-21T01:03:47;98067.03;;;16.81;79.87
45247;BME280;31529;51.158;7.354;2022-08-21T01:04:20;98079.25;;;16.87;79.23
45247;BME280;31529;51.158;7.354;2022-08-21T01:04:51;98080.03;;;16.88;79.00
45247;BME280;31529;51.158;7.354;2022-08-21T01:05:23;98073.06;;;16.87;79.44
45247;BME280;31529;51.158;7.354;2022-08-21T01:05:54;98073.88;;;16.87;79.32
45247;BME280;31529;51.158;7.354;2022-08-21T01:06:25;98078.47;;;16.87;79.44
45247;BME280;31529;51.158;7.354;2022-08-21T01:06:56;97988.72;;;16.30;79.20
45247;BME280;31529;51.158;7.354;2022-08-21T01:07:27;98073.88;;;16.87;79.25
45247;BME280;31529;51.158;7.354;2022-08-21T01:07:58;98082.41;;;16.89;79.35
45247;BME280;31529;51.158;7.354;2022-08-21T01:08:30;98075.13;;;16.90;79.11
45247;BME280;31529;51.158;7.354;2022-08-21T01:09:01;98077.81;;;16.90;79.01
45247;BME280;31529;51.158;7.354;2022-08-21T01:09:33;98079.41;;;16.91;78.94
45247;BME280;31529;51.158;7.354;2022-08-21T01:10:05;98074.00;;;16.91;79.45
45247;BME280;31529;51.158;7.354;2022-08-21T01:10:37;98081.94;;;16.87;78.89
45247;BME280;31529;51.158;7.354;2022-08-21T01:11:08;98078.00;;;16.85;79.44
45247;BME280;31529;51.158;7.354;2022-08-21T01:11:39;98069.09;;;16.84;79.25
45247;BME280;31529;51.158;7.354;2022-08-21T01:12:13;98080.69;;;16.85;79.26
45247;BME280;31529;51.158;7.354;2022-08-21T01:12:45;98084.50;;;16.84;79.04
45247;BME280;31529;51.158;7.354;2022-08-21T01:13:17;98084.97;;;16.86;80.01
45247;BME280;31529;51.158;7.354;2022-08-21T01:13:50;98083.03;;;16.86;79.67
45247;BME280;31529;51.158;7.354;2022-08-21T01:14:22;98075.78;;;16.87;79.99
45247;BME280;31529;51.158;7.354;2022-08-21T01:14:53;98083.84;;;16.87;79.67
45247;BME280;31529;51.158;7.354;2022-08-21T01:15:25;98081.16;;;16.87;80.24
45247;BME280;31529;51.158;7.354;2022-08-21T01:16:02;98086.56;;;16.87;79.66
45247;BME280;31529;51.158;7.354;2022-08-21T01:16:35;98078.13;;;16.88;80.31
45247;BME280;31529;51.158;7.354;2022-08-21T01:17:06;98089.72;;;16.89;79.68
45247;BME280;31529;51.158;7.354;2022-08-21T01:17:38;98083.19;;;16.90;80.16
45247;BME280;31529;51.158;7.354;2022-08-21T01:18:10;98084.00;;;16.90;80.04
45247;BME280;31529;51.158;7.354;2022-08-21T01:18:42;98084.00;;;16.90;79.65
45247;BME280;31529;51.158;7.354;2022-08-21T01:19:14;98082.09;;;16.91;79.87
45247;BME280;31529;51.158;7.354;2022-08-21T01:19:47;98078.28;;;16.92;79.50
45247;BME280;31529;51.158;7.354;2022-08-21T01:20:18;98083.66;;;16.92;79.82
45247;BME280;31529;51.158;7.354;2022-08-21T01:21:25;98085.56;;;16.91;79.46
45247;BME280;31529;51.158;7.354;2022-08-21T01:21:51;98086.34;;;16.92;79.55
45247;BME280;31529;51.158;7.354;2022-08-21T01:22:24;98089.06;;;16.92;79.52
45247;BME280;31529;51.158;7.354;2022-08-21T01:22:55;98084.78;;;16.91;79.87
45247;BME280;31529;51.158;7.354;2022-08-21T01:23:26;98084.78;;;16.91;79.29
45247;BME280;31529;51.158;7.354;2022-08-21T01:23:57;98092.88;;;16.91;79.61
45247;BME280;31529;51.158;7.354;2022-08-21T01:24:28;98083.19;;;16.90;79.18
45247;BME280;31529;51.158;7.354;2022-08-21T01:25:05;98087.81;;;16.89;79.23
45247;BME280;31529;51.158;7.354;2022-08-21T01:25:38;98080.03;;;16.88;79.35
45247;BME280;31529;51.158;7.354;2022-08-21T01:26:09;98084.63;;;16.87;79.64
45247;BME280;31529;51.158;7.354;2022-08-21T01:26:42;98079.25;;;16.87;79.47
45247;BME280;31529;51.158;7.354;2022-08-21T01:27:13;98083.84;;;16.87;79.74
45247;BME280;31529;51.158;7.354;2022-08-21T01:27:45;98081.16;;;16.87;79.98
45247;BME280;31529;51.158;7.354;2022-08-21T01:28:16;98081.47;;;16.85;79.32
45247;BME280;31529;51.158;7.354;2022-08-21T01:28:54;98080.69;;;16.85;79.85
45247;BME280;31529;51.158;7.354;2022-08-21T01:30:11;98084.00;;;16.90;79.51
45247;BME280;31529;51.158;7.354;2022-08-21T01:30:43;98073.72;;;16.84;79.18
45247;BME280;31529;51.158;7.354;2022-08-21T01:31:14;98082.56;;;16.93;79.37
45247;BME280;31529;51.158;7.354;2022-08-21T01:31:48;98084.13;;;16.94;79.31
45247;BME280;31529;51.158;7.354;2022-08-21T01:32:20;98080.34;;;16.95;78.85
45247;BME280;31529;51.158;7.354;2022-08-21T01:32:51;98087.31;;;16.96;78.92
45247;BME280;31529;51.158;7.354;2022-08-21T01:33:24;98078.09;;;16.97;79.29
45247;BME280;31529;51.158;7.354;2022-08-21T01:33:55;98083.19;;;16.98;79.08
45247;BME280;31529;51.158;7.354;2022-08-21T01:34:26;98084.75;;;17.00;79.07
45247;BME280;31529;51.158;7.354;2022-08-21T01:34:58;98083.66;;;17.01;78.76
45247;BME280;31529;51.158;7.354;2022-08-21T01:35:29;98079.84;;;17.02;79.18
45247;BME280;31529;51.158;7.354;2022-08-21T01:36:00;98080.63;;;17.02;79.17
45247;BME280;31529;51.158;7.354;2022-08-21T01:36:31;98083.34;;;17.02;79.01
45247;BME280;31529;51.158;7.354;2022-08-21T01:37:02;98087.59;;;17.03;79.53
45247;BME280;31529;51.158;7.354;2022-08-21T01:37:33;98085.88;;;16.98;79.16
45247;BME280;31529;51.158;7.354;2022-08-21T01:38:05;98085.72;;;16.95;78.80
45247;BME280;31529;51.158;7.354;2022-08-21T01:38:36;98083.66;;;16.92;79.48
45247;BME280;31529;51.158;7.354;2022-08-21T01:39:07;98081.63;;;16.89;79.39
45247;BME280;31529;51.158;7.354;2022-08-21T01:39:39;98084.63;;;16.87;79.15
45247;BME280;31529;51.158;7.354;2022-08-21T01:40:12;98083.03;;;16.86;79.40
45247;BME280;31529;51.158;7.354;2022-08-21T01:40:43;98086.09;;;16.85;79.19
45247;BME280;31529;51.158;7.354;2022-08-21T01:41:15;98085.59;;;16.83;79.18
45247;BME280;31529;51.158;7.354;2022-08-21T01:41:47;98090.47;;;16.81;79.49
45247;BME280;31529;51.158;7.354;2022-08-21T01:42:18;98087.31;;;16.78;78.95
45247;BME280;31529;51.158;7.354;2022-08-21T01:42:49;98084.97;;;16.77;79.36
45247;BME280;31529;51.158;7.354;2022-08-21T01:43:20;98089.53;;;16.76;79.47
45247;BME280;31529;51.158;7.354;2022-08-21T01:43:51;98086.38;;;16.74;79.25
45247;BME280;31529;51.158;7.354;2022-08-21T01:44:22;98080.53;;;16.72;79.33
45247;BME280;31529;51.158;7.354;2022-08-21T01:44:54;98090.06;;;16.70;79.97
45247;BME280;31529;51.158;7.354;2022-08-21T01:45:25;98094.63;;;16.69;80.02
45247;BME280;31529;51.158;7.354;2022-08-21T01:45:56;98087.66;;;16.68;79.89
45247;BME280;31529;51.158;7.354;2022-08-21T01:46:27;98088.28;;;16.65;79.85
45247;BME280;31529;51.158;7.354;2022-08-21T01:47:00;98084.34;;;16.63;79.95
45247;BME280;31529;51.158;7.354;2022-08-21T01:47:33;98085.78;;;16.60;80.40
45247;BME280;31529;51.158;7.354;2022-08-21T01:48:05;98086.88;;;16.59;80.26
45247;BME280;31529;51.158;7.354;2022-08-21T01:48:36;98081.03;;;16.57;80.22
45247;BME280;31529;51.158;7.354;2022-08-21T01:49:08;98089.44;;;16.55;80.58
45247;BME280;31529;51.158;7.354;2022-08-21T01:49:39;98088.63;;;16.55;80.00
45247;BME280;31529;51.158;7.354;2022-08-21T01:50:13;98085.78;;;16.51;80.37
45247;BME280;31529;51.158;7.354;2022-08-21T01:50:46;98084.19;;;16.50;80.17
45247;BME280;31529;51.158;7.354;2022-08-21T01:51:17;98089.94;;;16.49;80.40
45247;BME280;31529;51.158;7.354;2022-08-21T01:51:48;98082.94;;;16.48;80.68
45247;BME280;31529;51.158;7.354;2022-08-21T01:52:19;98085.63;;;16.48;80.27
45247;BME280;31529;51.158;7.354;2022-08-21T01:52:51;98082.16;;;16.47;80.92
45247;BME280;31529;51.158;7.354;2022-08-21T01:53:22;98090.25;;;16.47;80.73
45247;BME280;31529;51.158;7.354;2022-08-21T01:53:53;98083.25;;;16.46;81.02
45247;BME280;31529;51.158;7.354;2022-08-21T01:54:24;98084.84;;;16.47;80.60
45247;BME280;31529;51.158;7.354;2022-08-21T01:54:56;98087.22;;;16.49;80.71
45247;BME280;31529;51.158;7.354;2022-08-21T01:55:27;98079.31;;;16.52;80.50
45247;BME280;31529;51.158;7.354;2022-08-21T01:55:58;98080.56;;;16.55;80.82
45247;BME280;31529;51.158;7.354;2022-08-21T01:56:34;98091.81;;;16.57;80.18
45247;BME280;31529;51.158;7.354;2022-08-21T01:57:07;98084.97;;;16.59;80.36
45247;BME280;31529;51.158;7.354;2022-08-21T01:57:38;98082.75;;;16.62;80.63
45247;BME280;31529;51.158;7.354;2022-08-21T01:58:10;98087.81;;;16.63;81.02
45247;BME280;31529;51.158;7.354;2022-08-21T01:58:41;98088.28;;;16.65;80.71
45247;BME280;31529;51.158;7.354;2022-08-21T01:59:14;98088.44;;;16.69;81.13
45247;BME280;31529;51.158;7.354;2022-08-21T01:59:45;98086.22;;;16.71;80.65
45247;BME280;31529;51.158;7.354;2022-08-21T02:00:17;98085.59;;;16.74;80.78
45247;BME280;31529;51.158;7.354;2022-08-21T02:00:50;98085.75;;;16.77;80.76
45247;BME280;31529;51.158;7.354;2022-08-21T02:01:21;98078.91;;;16.80;80.90
45247;BME280;31529;51.158;7.354;2022-08-21T02:01:53;98081.78;;;16.84;80.82
45247;BME280;31529;51.158;7.354;2022-08-21T02:02:28;98079.25;;;16.87;81.00
45247;BME280;31529;51.158;7.354;2022-08-21T02:02:59;98081.31;;;16.90;80.39
45247;BME280;31529;51.158;7.354;2022-08-21T02:03:30;98075.56;;;16.92;79.98
45247;BME280;31529;51.158;7.354;2022-08-21T02:04:01;98079.88;;;16.93;80.29
45247;BME280;31529;51.158;7.354;2022-08-21T02:04:33;98074.16;;;16.94;79.95
45247;BME280;31529;51.158;7.354;2022-08-21T02:05:04;98081.13;;;16.95;79.90
45247;BME280;31529;51.158;7.354;2022-08-21T02:05:36;98071.16;;;16.96;79.98
45247;BME280;31529;51.158;7.354;2022-08-21T02:06:07;98074.63;;;16.96;79.38
45247;BME280;31529;51.158;7.354;2022-08-21T02:06:44;98069.41;;;16.91;79.84
45247;BME280;31529;51.158;7.354;2022-08-21T02:07:15;98073.22;;;16.90;80.17
45247;BME280;31529;51.158;7.354;2022-08-21T02:07:48;98071.63;;;16.89;79.65
45247;BME280;31529;51.158;7.354;2022-08-21T02:08:21;98071.94;;;16.88;80.22
45247;BME280;31529;51.158;7.354;2022-08-21T02:08:55;98070.38;;;16.87;79.67
45247;BME280;31529;51.158;7.354;2022-08-21T02:09:26;98073.06;;;16.87;79.70
45247;BME280;31529;51.158;7.354;2022-08-21T02:09:57;98073.06;;;16.87;80.37
45247;BME280;31529;51.158;7.354;2022-08-21T02:10:29;98074.19;;;16.86;80.08
45247;BME280;31529;51.158;7.354;2022-08-21T02:11:02;98074.19;;;16.86;79.85
45247;BME280;31529;51.158;7.354;2022-08-21T02:11:33;98075.31;;;16.85;79.89
45247;BME280;31529;51.158;7.354;2022-08-21T02:12:05;98071.81;;;16.84;79.66
45247;BME280;31529;51.158;7.354;2022-08-21T02:12:36;98079.09;;;16.84;79.90
45247;BME280;31529;51.158;7.354;2022-08-21T02:13:07;98074.81;;;16.83;79.67
45247;BME280;31529;51.158;7.354;2022-08-21T02:13:39;98069.41;;;16.83;79.61
45247;BME280;31529;51.158;7.354;2022-08-21T02:14:11;98074.81;;;16.83;79.86
45247;BME280;31529;51.158;7.354;2022-08-21T02:14:45;98075.91;;;16.82;80.28
45247;BME280;31529;51.158;7.354;2022-08-21T02:15:16;98070.53;;;16.82;79.98
45247;BME280;31529;51.158;7.354;2022-08-21T02:15:47;98070.53;;;16.82;79.92
45247;BME280;31529;51.158;7.354;2022-08-21T02:16:19;98073.22;;;16.82;79.93
45247;BME280;31529;51.158;7.354;2022-08-21T02:16:50;98078.59;;;16.82;80.03
45247;BME280;31529;51.158;7.354;2022-08-21T02:17:21;98072.75;;;16.79;79.88
45247;BME280;31529;51.158;7.354;2022-08-21T02:17:54;98078.13;;;16.79;79.60
45247;BME280;31529;51.158;7.354;2022-08-21T02:18:27;98073.06;;;16.78;80.13
45247;BME280;31529;51.158;7.354;2022-08-21T02:18:58;98073.84;;;16.78;79.65
45247;BME280;31529;51.158;7.354;2022-08-21T02:19:29;98075.75;;;16.78;79.82
45247;BME280;31529;51.158;7.354;2022-08-21T02:20:00;98068.00;;;16.76;79.79
45247;BME280;31529;51.158;7.354;2022-08-21T02:20:32;98068.00;;;16.76;80.06
45247;BME280;31529;51.158;7.354;2022-08-21T02:21:07;98066.41;;;16.75;80.27
45247;BME280;31529;51.158;7.354;2022-08-21T02:21:38;98070.69;;;16.76;79.60
45247;BME280;31529;51.158;7.354;2022-08-21T02:22:10;98064.81;;;16.74;79.95
45247;BME280;31529;51.158;7.354;2022-08-21T02:22:41;98070.69;;;16.76;80.29
45247;BME280;31529;51.158;7.354;2022-08-21T02:23:12;98068.00;;;16.76;80.54
45247;BME280;31529;51.158;7.354;2022-08-21T02:23:44;98063.41;;;16.77;80.55
45247;BME280;31529;51.158;7.354;2022-08-21T02:24:15;98066.09;;;16.77;80.66
45247;BME280;31529;51.158;7.354;2022-08-21T02:24:46;98066.22;;;16.81;80.24
45247;BME280;31529;51.158;7.354;2022-08-21T02:25:17;97988.25;;;16.28;79.65
45247;BME280;31529;51.158;7.354;2022-08-21T02:25:49;98069.91;;;16.85;79.84
45247;BME280;31529;51.158;7.354;2022-08-21T02:26:20;98071.47;;;16.86;79.71
45247;BME280;31529;51.158;7.354;2022-08-21T02:26:51;98067.22;;;16.85;80.06
45247;BME280;31529;51.158;7.354;2022-08-21T02:27:22;98069.91;;;16.85;79.58
45247;BME280;31529;51.158;7.354;2022-08-21T02:27:55;98064.53;;;16.85;79.61
45247;BME280;31529;51.158;7.354;2022-08-21T02:28:26;98065.63;;;16.84;79.13
45247;BME280;31529;51.158;7.354;2022-08-21T02:28:58;98065.13;;;16.82;79.65
45247;BME280;31529;51.158;7.354;2022-08-21T02:29:29;98058.97;;;16.81;79.56
45247;BME280;31529;51.158;7.354;2022-08-21T02:30:00;98060.84;;;16.81;79.09
45247;BME280;31529;51.158;7.354;2022-08-21T02:30:33;98054.97;;;16.78;78.99
45247;BME280;31529;51.158;7.354;2022-08-21T02:31:09;98063.41;;;16.77;79.62
45247;BME280;31529;51.158;7.354;2022-08-21T02:31:40;98065.28;;;16.76;79.35
45247;BME280;31529;51.158;7.354;2022-08-21T02:32:12;98061.03;;;16.75;79.38
45247;BME280;31529;51.158;7.354;2022-08-21T02:32:43;98061.34;;;16.74;79.26
45247;BME280;31529;51.158;7.354;2022-08-21T02:33:14;98059.44;;;16.74;79.45
45247;BME280;31529;51.158;7.354;2022-08-21T02:33:46;98067.53;;;16.74;79.88
45247;BME280;31529;51.158;7.354;2022-08-21T02:34:17;98065.13;;;16.73;79.69
45247;BME280;31529;51.158;7.354;2022-08-21T02:34:48;98060.56;;;16.73;80.14
45247;BME280;31529;51.158;7.354;2022-08-21T02:35:20;98066.41;;;16.75;79.77
45247;BME280;31529;51.158;7.354;2022-08-21T02:35:52;98059.44;;;16.74;79.95
45247;BME280;31529;51.158;7.354;2022-08-21T02:36:24;98061.81;;;16.76;79.74
45247;BME280;31529;51.158;7.354;2022-08-21T02:36:55;98062.59;;;16.76;79.96
45247;BME280;31529;51.158;7.354;2022-08-21T02:37:26;98062.59;;;16.76;80.09
45247;BME280;31529;51.158;7.354;2022-08-21T02:37:58;98058.81;;;16.77;80.29
45247;BME280;31529;51.158;7.354;2022-08-21T02:38:35;98062.28;;;16.78;80.36
45247;BME280;31529;51.158;7.354;2022-08-21T02:39:09;98059.59;;;16.78;80.15
45247;BME280;31529;51.158;7.354;2022-08-21T02:39:40;98065.75;;;16.78;80.26
45247;BME280;31529;51.158;7.354;2022-08-21T02:40:11;98056.91;;;16.78;79.88
45247;BME280;31529;51.158;7.354;2022-08-21T02:40:44;98054.97;;;16.78;79.57
45247;BME280;31529;51.158;7.354;2022-08-21T02:41:18;98065.75;;;16.78;80.39
45247;BME280;31529;51.158;7.354;2022-08-21T02:41:51;98064.97;;;16.78;80.29
45247;BME280;31529;51.158;7.354;2022-08-21T02:42:22;98058.81;;;16.77;80.21
45247;BME280;31529;51.158;7.354;2022-08-21T02:42:54;98058.81;;;16.77;79.39
45247;BME280;31529;51.158;7.354;2022-08-21T02:43:25;98058.03;;;16.77;79.30
45247;BME280;31529;51.158;7.354;2022-08-21T02:43:58;98057.22;;;16.76;79.38
45247;BME280;31529;51.158;7.354;2022-08-21T02:44:29;98061.03;;;16.75;79.65
45247;BME280;31529;51.158;7.354;2022-08-21T02:45:00;98057.88;;;16.73;78.93
45247;BME280;31529;51.158;7.354;2022-08-21T02:45:31;98060.56;;;16.73;78.97
45247;BME280;31529;51.158;7.354;2022-08-21T02:46:04;98061.66;;;16.72;79.12
45247;BME280;31529;51.158;7.354;2022-08-21T02:46:36;98058.50;;;16.70;78.95
45247;BME280;31529;51.158;7.354;2022-08-21T02:47:08;98056.13;;;16.69;78.95
45247;BME280;31529;51.158;7.354;2022-08-21T02:47:39;98056.44;;;16.67;79.18
45247;BME280;31529;51.158;7.354;2022-08-21T02:48:19;98055.97;;;16.65;79.42
45247;BME280;31529;51.158;7.354;2022-08-21T02:48:51;98056.28;;;16.64;78.96
45247;BME280;31529;51.158;7.354;2022-08-21T02:49:22;98063.91;;;16.62;78.95
45247;BME280;31529;51.158;7.354;2022-08-21T02:49:53;98060.41;;;16.61;78.81
45247;BME280;31529;51.158;7.354;2022-08-21T02:50:28;98058.84;;;16.60;79.01
45247;BME280;31529;51.158;7.354;2022-08-21T02:51:07;98059.47;;;16.57;79.22
45247;BME280;31529;51.158;7.354;2022-08-21T02:51:40;98069.47;;;16.56;79.56